Time;durP1;ratioP1;P1;durP2;ratioP2;P2;SDS_P1;SDS_P2;PMS_P1;PMS_P2;Temp;Humidity;BMP_temperature;BMP_pressure;BME280_temperature;BME280_humidity;BME280_pressure;Samples;Min_cycle;Max_cycle;Signal;HPM_P1;HPM_P2
2022/09/04 00:01:17;;;;;;;12.50;4.90;;;;;;;11.22;77.41;100613.63;106780;1268;24288;-75
2022/09/04 00:03:58;;;;;;;13.20;4.60;;;;;;;11.18;77.37;100610.44;106798;1268;25261;-77
2022/09/04 00:06:37;;;;;;;11.30;3.90;;;;;;;11.16;77.64;100608.65;106872;1267;22563;-76
2022/09/04 00:09:20;;;;;;;11.50;3.70;;;;;;;11.14;77.62;100613.05;106960;1268;24231;-75
2022/09/04 00:12:03;;;;;;;13.40;3.40;;;;;;;11.13;77.77;100614.85;107039;1267;23347;-76
2022/09/04 00:14:42;;;;;;;11.90;3.70;;;;;;;11.11;77.84;100615.86;106681;1267;22653;-75
2022/09/04 00:17:20;;;;;;;10.80;3.60;;;;;;;11.07;77.94;100621.55;106599;1268;25324;-76
2022/09/04 00:19:58;;;;;;;14.50;4.60;;;;;;;11.04;77.95;100621.45;106823;1268;22537;-77
2022/09/04 00:22:34;;;;;;;12.60;3.90;;;;;;;11.01;78.19;100620.81;106835;1267;23440;-75
2022/09/04 00:25:14;;;;;;;11.70;3.50;;;;;;;10.98;78.15;100617.25;106844;1267;22523;-75
2022/09/04 00:27:51;;;;;;;10.20;3.30;;;;;;;10.96;78.12;100620.43;106907;1268;25393;-76
2022/09/04 00:30:23;;;;;;;12.40;4.00;;;;;;;10.92;78.03;100623.09;106862;1268;24294;-76
2022/09/04 00:33:01;;;;;;;10.60;3.30;;;;;;;10.89;78.33;100622.05;106786;1268;22534;-75
2022/09/04 00:35:35;;;;;;;14.50;4.40;;;;;;;10.86;78.33;100626.00;106858;1268;24273;-76
2022/09/04 00:38:11;;;;;;;14.20;4.30;;;;;;;10.84;78.37;100621.63;106940;1267;24259;-76
2022/09/04 00:40:46;;;;;;;8.70;3.20;;;;;;;10.83;78.17;100629.11;106865;1268;22525;-76
2022/09/04 00:43:50;;;;;;;11.40;3.60;;;;;;;10.82;78.20;100633.55;106756;1268;26543;-77
2022/09/04 00:47:04;;;;;;;10.60;3.00;;;;;;;10.79;78.32;100638.11;106828;1268;23960;-76
2022/09/04 00:50:00;;;;;;;15.00;4.20;;;;;;;10.77;78.37;100640.48;106385;1274;22762;-75
2022/09/04 00:52:53;;;;;;;11.20;3.90;;;;;;;10.73;78.61;100649.23;106176;1274;22561;-76
2022/09/04 00:55:44;;;;;;;15.90;4.30;;;;;;;10.69;78.75;100651.23;106682;1272;22727;-74
2022/09/04 00:58:33;;;;;;;12.30;4.20;;;;;;;10.67;78.99;100654.52;106473;1274;25671;-75
2022/09/04 01:01:05;;;;;;;13.20;3.70;;;;;;;10.64;78.88;100651.95;106234;1272;26147;-76
2022/09/04 01:04:04;;;;;;;13.30;3.70;;;;;;;10.60;78.78;100655.56;106342;1272;22587;-75
2022/09/04 01:06:44;;;;;;;11.10;3.10;;;;;;;10.54;79.12;100652.46;105873;1278;27664;-76
2022/09/04 01:09:52;;;;;;;12.40;4.30;;;;;;;10.50;79.04;100652.63;105821;1280;25301;-75
2022/09/04 01:12:36;;;;;;;13.10;4.10;;;;;;;10.48;79.06;100653.39;105862;1281;25355;-76
2022/09/04 01:15:16;;;;;;;10.90;3.60;;;;;;;10.44;78.99;100649.20;105748;1278;23220;-75
2022/09/04 01:18:02;;;;;;;12.30;3.40;;;;;;;10.41;78.97;100650.52;105929;1280;22655;-76
2022/09/04 01:21:00;;;;;;;11.10;3.20;;;;;;;10.38;78.99;100651.23;105789;1281;24709;-75
2022/09/04 01:23:50;;;;;;;10.90;3.50;;;;;;;10.35;79.09;100652.94;105998;1277;22557;-76
2022/09/04 01:26:32;;;;;;;13.70;3.70;;;;;;;10.33;79.16;100656.15;106179;1278;24246;-75
2022/09/04 01:29:19;;;;;;;12.00;4.10;;;;;;;10.31;79.32;100653.45;106520;1272;24232;-75
2022/09/04 01:31:54;;;;;;;10.10;3.80;;;;;;;10.32;79.37;100657.27;106294;1271;22750;-74
2022/09/04 01:34:48;;;;;;;12.60;3.50;;;;;;;10.33;79.36;100657.60;106233;1274;22685;-73
2022/09/04 01:37:34;;;;;;;10.80;3.80;;;;;;;10.32;79.57;100651.19;106479;1273;22565;-73
2022/09/04 01:40:32;;;;;;;10.50;3.50;;;;;;;10.32;79.66;100652.23;106211;1274;22707;-75
2022/09/04 01:43:09;;;;;;;13.00;4.40;;;;;;;10.30;79.63;100654.23;106108;1274;22621;-74
2022/09/04 01:45:51;;;;;;;11.70;3.70;;;;;;;10.27;79.83;100653.88;106791;1268;22541;-73
2022/09/04 01:48:35;;;;;;;11.00;3.30;;;;;;;10.26;80.24;100654.77;106786;1267;22681;-74
2022/09/04 01:51:14;;;;;;;13.30;4.40;;;;;;;10.25;80.66;100650.53;106687;1268;25435;-73
2022/09/04 01:53:59;;;;;;;11.80;3.70;;;;;;;10.24;80.77;100650.32;106772;1267;22560;-73
2022/09/04 01:56:40;;;;;;;18.40;4.30;;;;;;;10.24;81.03;100650.16;106857;1267;22564;-74
2022/09/04 01:59:22;;;;;;;15.60;4.30;;;;;;;10.24;80.66;100652.17;109921;1267;23158;-74
2022/09/04 02:01:58;;;;;;;16.30;4.30;;;;;;;10.27;81.78;100653.02;109930;1267;22360;-74
2022/09/04 02:04:37;;;;;;;14.30;4.30;;;;;;;10.32;82.50;100653.57;109899;1266;22391;-76
2022/09/04 02:07:20;;;;;;;14.70;4.10;;;;;;;10.37;83.09;100650.77;107318;1267;22657;-74
2022/09/04 02:10:01;;;;;;;15.70;6.20;;;;;;;10.41;82.80;100648.04;106817;1267;25153;-75
2022/09/04 02:12:41;;;;;;;15.70;4.40;;;;;;;10.46;82.87;100647.24;106742;1267;24260;-74
2022/09/04 02:15:22;;;;;;;15.10;4.50;;;;;;;10.52;83.10;100642.83;106829;1267;22776;-74
2022/09/04 02:18:03;;;;;;;13.70;4.40;;;;;;;10.56;82.66;100645.22;106732;1267;22534;-74
2022/09/04 02:20:35;;;;;;;15.20;5.60;;;;;;;10.57;82.74;100645.30;106508;1267;25370;-76
2022/09/04 02:23:15;;;;;;;13.00;4.40;;;;;;;10.57;82.59;100640.82;106613;1267;22591;-74
2022/09/04 02:25:53;;;;;;;12.70;4.90;;;;;;;10.57;82.71;100638.53;106779;1267;24227;-74
2022/09/04 02:28:33;;;;;;;16.10;5.50;;;;;;;10.58;82.49;100643.44;106693;1267;22636;-74
2022/09/04 02:31:14;;;;;;;15.10;4.90;;;;;;;10.58;82.47;100645.33;106714;1267;25251;-74
2022/09/04 02:33:52;;;;;;;14.50;4.00;;;;;;;10.59;82.62;100645.69;106811;1267;25519;-74
2022/09/04 02:36:32;;;;;;;14.20;4.80;;;;;;;10.60;83.09;100642.71;106807;1267;24394;-74
2022/09/04 02:39:13;;;;;;;15.00;5.00;;;;;;;10.61;82.98;100639.23;106685;1267;22593;-74
2022/09/04 02:41:57;;;;;;;16.10;5.20;;;;;;;10.62;83.22;100638.19;106756;1267;22539;-74
2022/09/04 02:44:42;;;;;;;16.30;4.80;;;;;;;10.64;83.42;100643.75;106870;1267;24323;-75
2022/09/04 02:47:23;;;;;;;14.90;4.30;;;;;;;10.64;83.25;100644.74;106753;1267;22556;-75
2022/09/04 02:50:03;;;;;;;11.50;4.30;;;;;;;10.64;83.57;100644.59;106791;1267;24429;-74
2022/09/04 02:52:56;;;;;;;12.20;4.70;;;;;;;10.65;83.62;100643.75;106947;1267;22573;-75
2022/09/04 02:55:52;;;;;;;13.00;4.30;;;;;;;10.64;83.61;100644.10;106803;1267;22527;-74
2022/09/04 02:58:38;;;;;;;16.30;5.40;;;;;;;10.64;83.42;100645.17;106638;1267;25431;-74
2022/09/04 03:01:21;;;;;;;12.90;4.50;;;;;;;10.62;83.25;100641.42;106968;1267;22512;-74
2022/09/04 03:03:57;;;;;;;11.70;4.30;;;;;;;10.58;83.54;100640.55;106597;1267;23103;-74
2022/09/04 03:06:47;;;;;;;12.50;4.30;;;;;;;10.57;83.33;100641.58;106782;1266;22610;-74
2022/09/04 03:09:24;;;;;;;12.10;4.60;;;;;;;10.54;83.33;100641.05;106879;1267;22611;-74
2022/09/04 03:12:03;;;;;;;12.50;4.70;;;;;;;10.51;83.13;100646.46;106939;1267;22559;-75
2022/09/04 03:14:44;;;;;;;11.70;3.60;;;;;;;10.48;83.05;100647.59;107037;1267;22588;-74
2022/09/04 03:17:24;;;;;;;16.00;4.90;;;;;;;10.43;83.22;100644.98;106660;1267;25310;-74
2022/09/04 03:20:01;;;;;;;16.90;4.30;;;;;;;10.41;83.32;100643.20;106785;1267;25487;-74
2022/09/04 03:22:40;;;;;;;12.80;4.00;;;;;;;10.38;83.15;100644.84;106597;1267;22701;-74
2022/09/04 03:25:36;;;;;;;15.80;4.10;;;;;;;10.36;83.16;100649.00;106653;1267;22524;-74
2022/09/04 03:28:17;;;;;;;11.50;3.80;;;;;;;10.33;82.96;100637.60;106753;1267;25359;-75
2022/09/04 03:30:51;;;;;;;11.20;3.50;;;;;;;10.31;83.01;100633.84;106847;1267;22531;-74
2022/09/04 03:33:31;;;;;;;11.40;3.90;;;;;;;10.29;83.01;100638.47;106833;1267;25430;-75
2022/09/04 03:36:11;;;;;;;12.10;3.60;;;;;;;10.29;83.11;100639.36;106661;1267;22837;-74
2022/09/04 03:38:50;;;;;;;10.60;4.10;;;;;;;10.28;83.06;100643.86;106564;1267;22523;-74
2022/09/04 03:41:30;;;;;;;16.20;4.60;;;;;;;10.26;83.30;100644.12;106788;1267;22553;-75
2022/09/04 03:44:14;;;;;;;14.20;4.10;;;;;;;10.25;83.29;100642.72;106758;1267;22543;-74
2022/09/04 03:46:57;;;;;;;10.40;4.20;;;;;;;10.25;83.42;100642.66;106659;1267;22569;-76
2022/09/04 03:49:43;;;;;;;15.40;4.30;;;;;;;10.24;83.56;100645.16;106770;1267;22539;-75
2022/09/04 03:52:22;;;;;;;13.90;4.00;;;;;;;10.21;83.34;100649.05;107024;1267;26537;-74
2022/09/04 03:55:10;;;;;;;15.00;4.40;;;;;;;10.17;83.64;100654.70;106862;1267;26405;-74
2022/09/04 03:57:56;;;;;;;14.20;4.20;;;;;;;10.15;83.84;100656.56;106694;1267;25385;-73
2022/09/04 04:00:34;;;;;;;14.90;4.40;;;;;;;10.12;83.57;100650.95;106692;1267;23335;-75
2022/09/04 04:03:16;;;;;;;12.10;4.30;;;;;;;10.08;83.64;100650.61;106525;1266;22539;-75
2022/09/04 04:06:01;;;;;;;14.20;4.20;;;;;;;10.06;83.46;100650.18;106571;1267;22563;-74
2022/09/04 04:08:55;;;;;;;12.10;4.50;;;;;;;10.03;83.42;100652.30;106561;1267;22633;-74
2022/09/04 04:11:46;;;;;;;12.20;3.40;;;;;;;9.99;83.53;100649.77;106754;1267;22559;-76
2022/09/04 04:14:44;;;;;;;12.90;3.80;;;;;;;9.96;83.51;100657.06;106749;1267;22518;-75
2022/09/04 04:17:33;;;;;;;13.00;4.40;;;;;;;9.95;83.53;100658.40;106609;1267;24627;-74
2022/09/04 04:20:17;;;;;;;12.90;4.60;;;;;;;9.94;83.58;100665.98;106783;1267;22770;-75
2022/09/04 04:23:08;;;;;;;12.30;4.40;;;;;;;9.93;83.80;100663.08;106664;1267;23366;-73
2022/09/04 04:25:50;;;;;;;11.90;4.10;;;;;;;9.92;83.80;100663.63;106762;1267;26584;-74
2022/09/04 04:28:37;;;;;;;12.80;4.50;;;;;;;9.91;83.87;100664.16;106907;1266;22568;-74
2022/09/04 04:31:20;;;;;;;15.80;4.60;;;;;;;9.91;84.11;100666.45;106856;1267;22591;-75
2022/09/04 04:34:05;;;;;;;14.60;4.10;;;;;;;9.91;84.17;100663.91;106716;1267;22550;-75
2022/09/04 04:36:44;;;;;;;14.90;4.90;;;;;;;9.91;84.38;100668.02;106785;1267;22561;-74
2022/09/04 04:39:24;;;;;;;11.80;4.40;;;;;;;9.92;84.34;100672.77;106552;1267;24381;-75
2022/09/04 04:42:11;;;;;;;11.40;4.20;;;;;;;9.93;84.75;100675.77;106559;1267;23070;-76
2022/09/04 04:48:11;;;;;;;12.00;4.30;;;;;;;9.98;85.07;100684.23;106588;1267;24280;-75
2022/09/04 04:50:50;;;;;;;12.00;4.30;;;;;;;10.02;85.16;100687.96;106726;1267;25255;-75
2022/09/04 04:53:31;;;;;;;12.90;4.10;;;;;;;10.08;85.65;100692.18;106788;1267;25252;-75
2022/09/04 04:56:13;;;;;;;13.30;4.10;;;;;;;10.13;85.81;100696.42;106788;1267;23141;-74
2022/09/04 04:58:56;;;;;;;15.90;4.20;;;;;;;10.20;85.90;100700.37;106754;1267;24323;-75
2022/09/04 05:01:42;;;;;;;13.30;4.80;;;;;;;10.27;86.12;100704.11;106705;1267;23961;-74
2022/09/04 05:04:23;;;;;;;14.60;4.30;;;;;;;10.34;86.54;100707.55;106874;1267;22705;-74
2022/09/04 05:07:00;;;;;;;16.70;4.70;;;;;;;10.41;86.94;100709.84;106828;1267;22542;-75
2022/09/04 05:09:40;;;;;;;13.70;4.60;;;;;;;10.49;87.14;100712.77;106621;1267;22588;-74
2022/09/04 05:12:23;;;;;;;14.20;5.80;;;;;;;10.56;87.07;100713.09;106690;1267;22628;-74
2022/09/04 05:15:00;;;;;;;13.70;5.60;;;;;;;10.64;87.00;100714.89;106625;1267;22647;-75
2022/09/04 05:17:39;;;;;;;12.90;4.80;;;;;;;10.71;87.16;100721.64;106826;1267;22578;-75
2022/09/04 05:20:37;;;;;;;13.00;4.30;;;;;;;10.80;87.11;100720.36;107050;1267;22624;-75
2022/09/04 05:23:24;;;;;;;13.80;4.70;;;;;;;10.91;87.66;100725.67;106863;1267;23812;-75
2022/09/04 05:26:02;;;;;;;16.00;4.90;;;;;;;11.01;87.80;100725.05;106725;1267;24415;-74
2022/09/04 05:28:40;;;;;;;14.20;4.30;;;;;;;11.11;87.88;100727.13;106624;1267;22530;-75
2022/09/04 05:31:20;;;;;;;14.60;5.00;;;;;;;11.22;87.74;100729.16;106498;1267;24426;-75
2022/09/04 05:34:02;;;;;;;12.80;5.00;;;;;;;11.32;87.72;100726.85;106730;1267;22681;-75
2022/09/04 05:36:45;;;;;;;13.20;4.80;;;;;;;11.42;88.29;100722.38;106595;1267;22528;-75
2022/09/04 05:39:27;;;;;;;12.60;4.40;;;;;;;11.51;87.92;100723.05;106844;1267;22526;-74
2022/09/04 05:42:23;;;;;;;12.80;3.40;;;;;;;11.60;87.83;100721.71;106756;1267;24231;-73
2022/09/04 05:45:05;;;;;;;12.50;4.30;;;;;;;11.70;88.04;100722.21;106812;1267;22650;-74
2022/09/04 05:47:50;;;;;;;11.00;4.00;;;;;;;11.79;88.39;100725.83;106943;1267;22560;-74
2022/09/04 05:50:36;;;;;;;13.00;4.10;;;;;;;11.88;88.34;100726.73;106803;1267;22811;-75
2022/09/04 05:53:31;;;;;;;10.80;4.20;;;;;;;11.94;88.30;100728.80;106782;1267;22609;-74
2022/09/04 05:56:40;;;;;;;15.10;5.10;;;;;;;12.00;88.12;100725.77;106522;1271;25434;-74
2022/09/04 05:59:29;;;;;;;11.30;3.70;;;;;;;12.07;87.66;100733.55;106274;1272;22787;-74
2022/09/04 06:02:27;;;;;;;11.50;3.50;;;;;;;12.12;87.52;100736.52;106131;1272;22810;-74
2022/09/04 06:05:12;;;;;;;9.90;3.30;;;;;;;12.17;87.34;100746.11;106134;1272;23264;-74
2022/09/04 06:07:52;;;;;;;13.60;4.10;;;;;;;12.21;87.22;100750.88;102285;1271;5442870;-74
2022/09/04 06:10:30;;;;;;;11.60;3.80;;;;;;;12.27;87.29;100754.30;106366;1273;23017;-74
2022/09/04 06:13:24;;;;;;;13.30;4.10;;;;;;;12.33;87.45;100757.18;106398;1271;22544;-74
2022/09/04 06:16:08;;;;;;;10.30;2.70;;;;;;;12.41;87.15;100759.17;106461;1271;25405;-74
2022/09/04 06:19:01;;;;;;;13.00;3.40;;;;;;;12.47;86.92;100760.92;106306;1272;23512;-75
2022/09/04 06:21:55;;;;;;;10.60;3.30;;;;;;;12.54;86.60;100764.27;106347;1273;22610;-74
2022/09/04 06:24:54;;;;;;;13.40;3.10;;;;;;;12.60;86.50;100767.70;106280;1273;22586;-76
2022/09/04 06:27:47;;;;;;;16.30;3.40;;;;;;;12.66;86.43;100769.21;106514;1272;22522;-75
2022/09/04 06:30:19;;;;;;;9.40;3.00;;;;;;;12.71;86.22;100769.02;106496;1272;24815;-75
2022/09/04 06:33:30;;;;;;;10.30;2.40;;;;;;;12.77;86.01;100771.94;106433;1273;26543;-76
2022/09/04 06:36:30;;;;;;;9.60;2.80;;;;;;;12.83;85.91;100765.02;106842;1266;25515;-75
2022/09/04 06:39:21;;;;;;;10.30;2.80;;;;;;;12.90;85.87;100768.88;106934;1267;24335;-74
2022/09/04 06:42:07;;;;;;;13.80;3.30;;;;;;;12.98;85.78;100768.92;106942;1267;22548;-74
2022/09/04 06:44:55;;;;;;;11.30;3.50;;;;;;;13.08;85.94;100771.15;106845;1267;22612;-74
2022/09/04 06:47:37;;;;;;;9.50;2.90;;;;;;;13.21;86.08;100769.52;106902;1267;22532;-73
2022/09/04 06:50:20;;;;;;;10.30;3.00;;;;;;;13.33;85.60;100770.55;106910;1267;25307;-76
2022/09/04 06:53:13;;;;;;;11.10;3.00;;;;;;;13.45;85.58;100769.11;106919;1267;22594;-75
2022/09/04 06:55:55;;;;;;;8.90;3.00;;;;;;;13.60;85.07;100771.90;106974;1267;22623;-75
2022/09/04 06:58:53;;;;;;;9.40;3.30;;;;;;;13.70;84.66;100776.13;107013;1267;22528;-74
2022/09/04 07:01:33;;;;;;;9.10;3.20;;;;;;;13.81;84.38;100783.84;106833;1267;25481;-75
2022/09/04 07:04:13;;;;;;;8.40;2.90;;;;;;;13.89;84.13;100785.94;106910;1267;25257;-75
2022/09/04 07:06:52;;;;;;;;;;;;;;;13.98;83.98;100786.48;106961;1267;22655;-74
2022/09/04 07:09:28;;;;;;;9.00;2.70;;;;;;;14.04;83.75;100788.30;107089;1267;22541;-74
2022/09/04 07:12:23;;;;;;;10.20;2.50;;;;;;;14.11;83.32;100788.11;106828;1267;22590;-75
2022/09/04 07:15:28;;;;;;;11.10;3.60;;;;;;;14.20;83.88;100793.00;106898;1266;22632;-75
2022/09/04 07:18:11;;;;;;;9.80;3.20;;;;;;;14.33;83.58;100792.23;106788;1267;22678;-75
2022/09/04 07:20:56;;;;;;;9.90;2.30;;;;;;;14.42;83.21;100794.13;106939;1267;25198;-75
2022/09/04 07:23:43;;;;;;;10.00;3.50;;;;;;;14.51;82.91;100800.11;106842;1264;24254;-75
2022/09/04 07:26:25;;;;;;;11.90;3.30;;;;;;;14.59;82.84;100801.44;106934;1267;25168;-76
2022/09/04 07:29:22;;;;;;;9.10;3.30;;;;;;;14.68;82.44;100798.10;106933;1267;26726;-75
2022/09/04 07:32:01;;;;;;;11.90;4.00;;;;;;;14.78;82.66;100799.40;106857;1267;24149;-78
2022/09/04 07:34:43;;;;;;;10.30;3.40;;;;;;;14.89;82.89;100800.73;106726;1267;23417;-75
2022/09/04 07:37:26;;;;;;;8.70;2.40;;;;;;;14.98;81.94;100798.67;106922;1267;22547;-76
2022/09/04 07:40:08;;;;;;;10.20;2.90;;;;;;;15.04;81.95;100800.33;106839;1267;22539;-75
2022/09/04 07:42:47;;;;;;;11.70;2.90;;;;;;;15.09;81.67;100799.88;106778;1267;22536;-75
2022/09/04 07:45:30;;;;;;;13.10;3.70;;;;;;;15.14;81.38;100802.31;106881;1266;22548;-75
2022/09/04 07:48:13;;;;;;;10.60;3.00;;;;;;;15.20;81.53;100806.27;106846;1267;22684;-75
2022/09/04 07:51:03;;;;;;;10.60;3.00;;;;;;;15.25;81.31;100805.28;106910;1267;22527;-75
2022/09/04 07:53:42;;;;;;;;;;;;;;;15.30;80.75;100808.30;106903;1267;22508;-75
2022/09/04 07:56:24;;;;;;;11.10;3.20;;;;;;;15.32;80.42;100811.89;106965;1267;25359;-75
2022/09/04 07:59:13;;;;;;;8.70;2.50;;;;;;;15.36;80.43;100809.05;106954;1267;22570;-75
2022/09/04 08:02:02;;;;;;;7.70;2.50;;;;;;;15.41;80.39;100812.90;106844;1267;22594;-76
2022/09/04 08:04:59;;;;;;;9.90;2.70;;;;;;;15.47;80.02;100816.61;106887;1267;22536;-74
2022/09/04 08:07:52;;;;;;;10.60;3.10;;;;;;;15.51;79.81;100814.80;106947;1267;25931;-74
2022/09/04 08:10:33;;;;;;;10.40;3.10;;;;;;;15.58;80.12;100814.54;106947;1267;22471;-74
2022/09/04 08:13:26;;;;;;;10.60;3.30;;;;;;;15.67;79.69;100818.35;106825;1267;22573;-74
2022/09/04 08:16:09;;;;;;;9.20;3.00;;;;;;;15.72;78.90;100818.34;106818;1267;22598;-74
2022/09/04 08:19:00;;;;;;;9.50;2.60;;;;;;;15.76;78.78;100814.84;107120;1266;24227;-75
2022/09/04 08:21:35;;;;;;;9.40;2.70;;;;;;;15.82;78.57;100815.27;106891;1267;24266;-74
2022/09/04 08:24:41;;;;;;;10.20;3.30;;;;;;;15.85;78.28;100823.55;106869;1267;25534;-76
2022/09/04 08:27:26;;;;;;;9.90;3.00;;;;;;;15.91;78.14;100833.06;106845;1267;24387;-74
2022/09/04 08:30:05;;;;;;;9.00;2.90;;;;;;;15.96;78.07;100839.80;106819;1267;23910;-76
2022/09/04 08:33:08;;;;;;;9.20;2.90;;;;;;;16.02;77.75;100842.29;106812;1265;23670;-75
2022/09/04 08:35:52;;;;;;;9.20;2.50;;;;;;;16.08;77.33;100851.65;106935;1264;22530;-75
2022/09/04 08:38:55;;;;;;;11.20;3.40;;;;;;;16.12;77.23;100848.40;106953;1267;22544;-75
2022/09/04 08:42:11;;;;;;;12.20;3.50;;;;;;;16.20;77.15;100852.95;106769;1267;22679;-74
2022/09/04 08:45:24;;;;;;;11.70;2.90;;;;;;;16.28;76.93;100854.84;106577;1271;22897;-75
2022/09/04 08:48:24;;;;;;;8.90;2.90;;;;;;;16.36;76.42;100851.25;106060;1276;26040;-75
2022/09/04 08:51:33;;;;;;;9.60;2.70;;;;;;;16.40;76.20;100857.11;106114;1276;26536;-76
2022/09/04 08:54:47;;;;;;;9.40;2.90;;;;;;;16.48;76.08;100861.98;106047;1276;24828;-74
2022/09/04 08:57:50;;;;;;;9.30;3.00;;;;;;;16.53;75.52;100864.79;105816;1281;24275;-76
2022/09/04 09:00:33;;;;;;;8.40;2.80;;;;;;;16.60;75.39;100866.92;105697;1281;22537;-75
2022/09/04 09:03:51;;;;;;;8.90;2.90;;;;;;;16.68;75.41;100865.52;105725;1281;22598;-76
2022/09/04 09:07:18;;;;;;;6.80;2.40;;;;;;;16.76;75.16;100868.52;105749;1279;25771;-75
2022/09/04 09:10:17;;;;;;;9.50;3.00;;;;;;;16.87;75.17;100865.90;105302;1284;25452;-75
2022/09/04 09:13:36;;;;;;;7.80;2.10;;;;;;;16.97;74.93;100869.63;105232;1287;22601;-75
2022/09/04 09:16:37;;;;;;;8.70;2.00;;;;;;;17.03;74.51;100870.36;105237;1287;22561;-75
2022/09/04 09:19:32;;;;;;;9.30;2.40;;;;;;;17.12;74.52;100873.05;105467;1287;23534;-75
2022/09/04 09:22:17;;;;;;;7.80;2.60;;;;;;;17.19;74.32;100872.45;105469;1281;23427;-75
2022/09/04 09:25:31;;;;;;;10.30;2.20;;;;;;;17.28;74.05;100875.04;106066;1273;22744;-75
2022/09/04 09:28:48;;;;;;;8.70;2.40;;;;;;;17.36;73.55;100874.80;105786;1281;25455;-75
2022/09/04 09:32:15;;;;;;;6.80;2.10;;;;;;;17.44;73.25;100875.05;105735;1282;22544;-76
2022/09/04 09:35:40;;;;;;;10.80;2.60;;;;;;;17.50;73.17;100870.02;106035;1277;25468;-75
2022/09/04 09:38:38;;;;;;;7.60;2.00;;;;;;;17.59;73.14;100867.25;106077;1276;25980;-75
2022/09/04 09:41:33;;;;;;;7.30;1.90;;;;;;;17.68;72.36;100868.39;106101;1276;22648;-75
2022/09/04 09:44:46;;;;;;;7.60;2.40;;;;;;;17.73;72.34;100875.83;106341;1273;22533;-75
2022/09/04 09:48:01;;;;;;;7.60;2.30;;;;;;;17.80;71.89;100875.21;106648;1271;22553;-75
2022/09/04 09:51:07;;;;;;;7.20;1.90;;;;;;;17.86;71.89;100875.76;106665;1272;22624;-75
2022/09/04 09:54:15;;;;;;;8.30;2.20;;;;;;;17.93;71.36;100880.13;106572;1271;22543;-75
2022/09/04 09:57:14;;;;;;;7.50;1.90;;;;;;;17.99;70.96;100878.02;106264;1277;24362;-75
2022/09/04 10:00:11;;;;;;;5.50;1.80;;;;;;;18.05;71.16;100876.94;106205;1277;22566;-75
2022/09/04 10:03:32;;;;;;;10.80;2.20;;;;;;;18.13;71.03;100872.50;106413;1278;25368;-75
2022/09/04 10:06:43;;;;;;;7.00;2.10;;;;;;;18.23;71.17;100876.59;106542;1273;22641;-75
2022/09/04 10:09:48;;;;;;;6.50;2.20;;;;;;;18.35;71.20;100872.14;106497;1272;22646;-74
2022/09/04 10:12:50;;;;;;;7.90;2.30;;;;;;;18.41;70.13;100870.86;106343;1272;25662;-76
2022/09/04 10:16:03;;;;;;;7.70;2.70;;;;;;;18.46;69.97;100866.84;106247;1277;25652;-76
2022/09/04 10:19:04;;;;;;;9.20;2.80;;;;;;;18.54;69.46;100862.29;105778;1284;22557;-75
2022/09/04 10:22:17;;;;;;;13.30;3.40;;;;;;;18.60;69.39;100863.66;105820;1281;22536;-75
2022/09/04 10:25:34;;;;;;;12.80;4.00;;;;;;;18.67;69.11;100862.55;105743;1282;25444;-75
2022/09/04 10:28:39;;;;;;;18.70;7.00;;;;;;;18.74;69.17;100864.84;104332;1293;22625;-76
2022/09/04 10:31:46;;;;;;;12.70;3.00;;;;;;;18.80;69.16;100863.63;104490;1293;22721;-74
2022/09/04 10:34:33;;;;;;;8.30;2.40;;;;;;;18.87;68.99;100864.68;104591;1290;22677;-74
2022/09/04 10:37:18;;;;;;;7.20;1.90;;;;;;;18.92;68.37;100870.52;104863;1291;22565;-76
2022/09/04 10:43:10;;;;;;;7.20;2.00;;;;;;;19.07;68.41;100871.48;104969;1290;22798;-75
2022/09/04 10:45:47;;;;;;;10.60;3.20;;;;;;;19.17;68.35;100876.14;104937;1290;22637;-74
2022/09/04 10:49:25;;;;;;;9.90;2.90;;;;;;;19.22;68.43;100875.75;104914;1290;22585;-74
2022/09/04 10:52:16;;;;;;;8.50;2.20;;;;;;;19.29;68.02;100870.65;104414;1294;22588;-73
2022/09/04 10:55:16;;;;;;;7.80;2.10;;;;;;;19.31;67.33;100868.02;104985;1290;22677;-76
2022/09/04 10:57:53;;;;;;;;;;;;;;;19.33;67.48;100863.48;105515;1284;25308;-75
2022/09/04 11:00:35;;;;;;;11.50;3.10;;;;;;;19.34;67.37;100862.64;105595;1284;22521;-76
2022/09/04 11:03:33;;;;;;;8.40;2.30;;;;;;;19.36;67.27;100867.25;105616;1284;24382;-75
2022/09/04 11:06:36;;;;;;;7.30;2.10;;;;;;;19.38;66.67;100860.23;105968;1277;22657;-75
2022/09/04 11:09:32;;;;;;;5.00;1.70;;;;;;;19.38;66.83;100858.73;106204;1277;22762;-76
2022/09/04 11:12:48;;;;;;;6.50;2.00;;;;;;;19.42;66.59;100856.51;106497;1272;25369;-76
2022/09/04 11:15:55;;;;;;;5.50;1.60;;;;;;;19.47;66.03;100859.39;106124;1277;22489;-77
2022/09/04 11:19:03;;;;;;;8.70;1.90;;;;;;;19.52;66.27;100868.23;105905;1281;22563;-75
2022/09/04 11:22:15;;;;;;;9.60;2.30;;;;;;;19.58;66.11;100859.42;105485;1284;23471;-75
2022/09/04 11:25:19;;;;;;;6.30;1.70;;;;;;;19.64;65.62;100856.42;106408;1279;23281;-75
2022/09/04 11:28:39;;;;;;;5.80;1.70;;;;;;;19.70;65.43;100857.93;105945;1281;22649;-75
2022/09/04 11:31:47;;;;;;;5.40;1.60;;;;;;;19.75;64.68;100859.52;105837;1281;90894;-74
2022/09/04 11:34:52;;;;;;;6.40;1.70;;;;;;;19.81;64.62;100859.77;105799;1282;22628;-75
2022/09/04 11:38:07;;;;;;;6.60;1.60;;;;;;;19.86;64.65;100853.25;105657;1284;24276;-74
2022/09/04 11:41:19;;;;;;;6.00;1.30;;;;;;;19.92;64.63;100848.30;105692;1282;24162;-73
2022/09/04 11:44:10;;;;;;;5.10;1.60;;;;;;;19.97;64.50;100847.67;105788;1282;22600;-75
2022/09/04 11:47:29;;;;;;;4.70;1.10;;;;;;;20.02;64.00;100842.53;105836;1282;22632;-74
2022/09/04 11:50:28;;;;;;;3.80;1.10;;;;;;;20.05;63.35;100847.85;105293;1285;26097;-74
2022/09/04 11:53:12;;;;;;;;;;;;;;;20.05;62.81;100847.04;105458;1286;23322;-73
2022/09/04 11:56:07;;;;;;;5.20;1.20;;;;;;;20.04;62.76;100838.34;105381;1285;22546;-75
2022/09/04 11:59:06;;;;;;;5.50;1.50;;;;;;;20.09;62.25;100841.17;105693;1279;22567;-74
2022/09/04 12:01:56;;;;;;;5.80;1.30;;;;;;;20.18;62.41;100841.77;105839;1279;22591;-74
2022/09/04 12:04:43;;;;;;;4.70;1.20;;;;;;;20.24;61.89;100849.70;106195;1279;22552;-74
2022/09/04 12:07:32;;;;;;;4.60;1.00;;;;;;;20.28;61.14;100851.11;106166;1279;22557;-74
2022/09/04 12:10:41;;;;;;;3.90;1.10;;;;;;;20.31;61.05;100846.50;106085;1279;23473;-75
2022/09/04 12:13:31;;;;;;;3.20;0.80;;;;;;;20.34;60.14;100846.88;105535;1285;25388;-76
2022/09/04 12:16:41;;;;;;;3.40;1.00;;;;;;;20.37;60.09;100843.39;105502;1285;22490;-74
2022/09/04 12:19:49;;;;;;;4.00;0.90;;;;;;;20.42;60.40;100848.68;105603;1285;22538;-75
2022/09/04 12:22:55;;;;;;;3.90;0.90;;;;;;;20.49;60.01;100842.67;105469;1285;22779;-73
2022/09/04 12:26:11;;;;;;;4.30;0.80;;;;;;;20.54;60.39;100843.74;105347;1285;25568;-75
2022/09/04 12:29:09;;;;;;;3.00;0.80;;;;;;;20.61;59.94;100842.58;105901;1281;25373;-77
2022/09/04 12:32:05;;;;;;;5.10;0.90;;;;;;;20.71;60.23;100841.84;105901;1281;22556;-73
2022/09/04 12:35:09;;;;;;;4.70;1.00;;;;;;;20.82;59.81;100838.02;106423;1276;24393;-74
2022/09/04 12:38:07;;;;;;;4.90;0.60;;;;;;;20.91;59.61;100849.36;106239;1276;24244;-75
2022/09/04 12:40:46;;;;;;;3.80;0.70;;;;;;;20.95;59.07;100847.70;106311;1276;22979;-75
2022/09/04 12:43:30;;;;;;;4.40;0.80;;;;;;;20.99;58.72;100845.02;108033;1276;22763;-75
2022/09/04 12:46:16;;;;;;;3.90;0.90;;;;;;;21.00;58.52;100842.94;106597;1276;22550;-75
2022/09/04 12:49:01;;;;;;;5.60;0.90;;;;;;;21.02;58.44;100847.21;106276;1276;22544;-75
2022/09/04 12:51:48;;;;;;;5.40;1.40;;;;;;;21.05;58.23;100844.09;106632;1269;24605;-73
2022/09/04 12:54:37;;;;;;;3.30;1.00;;;;;;;21.08;58.32;100843.30;106783;1270;23499;-74
2022/09/04 12:57:24;;;;;;;4.10;1.00;;;;;;;21.13;57.99;100852.13;106773;1270;24266;-74
2022/09/04 13:00:06;;;;;;;2.50;0.70;;;;;;;21.16;57.76;100846.60;106791;1270;22598;-76
2022/09/04 13:02:50;;;;;;;5.40;0.80;;;;;;;21.17;56.93;100848.09;106895;1270;23563;-75
2022/09/04 13:06:02;;;;;;;2.50;0.70;;;;;;;21.19;57.40;100850.34;106764;1270;22543;-76